Terminal Aerodrome Forecast
Issued by NWS

Home | Current Version | Previous Version | Text Only | Print | Product List | Glossary On
Versions: 1 2 3 4 5 6 7 8 9 10 11 12 13 14 15 16 17 18 19 20 21 22 23 24 25 26 27 28 29 30 31 32 33 34 35 36 37 38 39 40 41 42 43
000
FTUS43 KDMX 291133
TAFOTM
TAF
KOTM 291133Z 2912/3012 07015KT P6SM SCT008 OVC013
     FM291330 06016G23KT P6SM VCSH OVC015
     FM291500 06017G24KT 4SM -SHRA BR SCT009 OVC014
     FM291800 05018G25KT 2SM SHRA BR SCT007 OVC012
     FM292300 05018G25KT 5SM BR VCSH OVC008
     FM300300 05016G23KT 3SM -SHRA BR OVC006=

USA.gov is the U.S. government's official web portal to all federal, state and local government web resources and services.